sensor_id;sensor_type;location;lat;lon;timestamp;pressure;altitude;pressure_sealevel;temperature;humidity
76216;BME280;65010;50.190;18.930;2022-11-23T00:00:31;96929.69;;;0.75;69.44
76216;BME280;65010;50.190;18.930;2022-11-23T00:03:41;96941.81;;;0.74;69.76
76216;BME280;65010;50.190;18.930;2022-11-23T00:06:47;96935.59;;;0.67;69.87
76216;BME280;65010;50.190;18.930;2022-11-23T00:09:54;96929.09;;;0.63;69.88
76216;BME280;65010;50.190;18.930;2022-11-23T00:13:00;96939.97;;;0.66;69.95
76216;BME280;65010;50.190;18.930;2022-11-23T00:16:08;96936.72;;;0.64;70.09
76216;BME280;65010;50.190;18.930;2022-11-23T00:19:20;96940.25;;;0.63;69.91
76216;BME280;65010;50.190;18.930;2022-11-23T00:22:26;96942.81;;;0.63;69.91
76216;BME280;65010;50.190;18.930;2022-11-23T00:25:33;96943.00;;;0.62;69.94
76216;BME280;65010;50.190;18.930;2022-11-23T00:28:40;96941.00;;;0.56;70.17
76216;BME280;65010;50.190;18.930;2022-11-23T00:31:46;96942.44;;;0.40;70.64
76216;BME280;65010;50.190;18.930;2022-11-23T00:34:55;96936.78;;;0.27;70.84
76216;BME280;65010;50.190;18.930;2022-11-23T00:38:01;96935.53;;;0.31;71.17
76216;BME280;65010;50.190;18.930;2022-11-23T00:41:10;96943.44;;;0.29;70.96
76216;BME280;65010;50.190;18.930;2022-11-23T00:44:17;96929.84;;;0.27;70.74
76216;BME280;65010;50.190;18.930;2022-11-23T00:47:25;96930.53;;;0.29;70.89
76216;BME280;65010;50.190;18.930;2022-11-23T00:50:34;96933.25;;;0.28;70.89
76216;BME280;65010;50.190;18.930;2022-11-23T00:53:42;96933.25;;;0.28;71.14
76216;BME280;65010;50.190;18.930;2022-11-23T00:56:48;96929.56;;;0.30;70.80
76216;BME280;65010;50.190;18.930;2022-11-23T00:59:55;96919.88;;;0.33;70.82
76216;BME280;65010;50.190;18.930;2022-11-23T01:03:01;96922.47;;;0.33;70.84
76216;BME280;65010;50.190;18.930;2022-11-23T01:06:12;96908.47;;;0.25;70.99
76216;BME280;65010;50.190;18.930;2022-11-23T01:09:19;96922.47;;;0.33;70.87
76216;BME280;65010;50.190;18.930;2022-11-23T01:12:29;96926.25;;;0.38;70.65
76216;BME280;65010;50.190;18.930;2022-11-23T01:15:34;96927.44;;;0.44;70.33
76216;BME280;65010;50.190;18.930;2022-11-23T01:18:41;96921.16;;;0.46;70.36
76216;BME280;65010;50.190;18.930;2022-11-23T01:21:50;96929.28;;;0.52;69.88
76216;BME280;65010;50.190;18.930;2022-11-23T01:24:59;96934.47;;;0.52;69.88
76216;BME280;65010;50.190;18.930;2022-11-23T01:28:05;96928.34;;;0.53;69.87
76216;BME280;65010;50.190;18.930;2022-11-23T01:31:14;96932.03;;;0.50;69.79
76216;BME280;65010;50.190;18.930;2022-11-23T01:34:21;96932.75;;;0.42;70.08
76216;BME280;65010;50.190;18.930;2022-11-23T01:37:31;96925.94;;;0.41;70.05
76216;BME280;65010;50.190;18.930;2022-11-23T01:40:40;96921.44;;;0.43;69.94
76216;BME280;65010;50.190;18.930;2022-11-23T01:43:49;96922.88;;;0.38;69.82
76216;BME280;65010;50.190;18.930;2022-11-23T01:46:57;96923.00;;;0.36;70.09
76216;BME280;65010;50.190;18.930;2022-11-23T01:50:06;96925.59;;;0.36;69.86
76216;BME280;65010;50.190;18.930;2022-11-23T01:53:16;96915.97;;;0.28;69.71
76216;BME280;65010;50.190;18.930;2022-11-23T01:56:28;96936.38;;;0.32;69.83
76216;BME280;65010;50.190;18.930;2022-11-23T01:59:39;96937.59;;;0.27;69.88
76216;BME280;65010;50.190;18.930;2022-11-23T02:02:52;96932.03;;;0.22;70.25
76216;BME280;65010;50.190;18.930;2022-11-23T02:06:08;96937.06;;;0.24;70.25
76216;BME280;65010;50.190;18.930;2022-11-23T02:09:23;96929.69;;;0.29;70.33
76216;BME280;65010;50.190;18.930;2022-11-23T02:12:31;96932.81;;;0.33;70.32
76216;BME280;65010;50.190;18.930;2022-11-23T02:15:40;96935.47;;;0.41;70.10
76216;BME280;65010;50.190;18.930;2022-11-23T02:18:51;96899.56;;;0.20;69.74
76216;BME280;65010;50.190;18.930;2022-11-23T02:21:58;96932.38;;;0.37;70.10
76216;BME280;65010;50.190;18.930;2022-11-23T02:25:13;96926.53;;;0.35;70.12
76216;BME280;65010;50.190;18.930;2022-11-23T02:28:35;96933.19;;;0.38;69.98
76216;BME280;65010;50.190;18.930;2022-11-23T02:31:44;96939.31;;;0.37;69.99
76216;BME280;65010;50.190;18.930;2022-11-23T02:34:51;96941.91;;;0.37;70.12
76216;BME280;65010;50.190;18.930;2022-11-23T02:37:58;96936.50;;;0.30;69.80
76216;BME280;65010;50.190;18.930;2022-11-23T02:41:07;96940.34;;;0.26;70.11
76216;BME280;65010;50.190;18.930;2022-11-23T02:44:26;96938.16;;;0.21;70.28
76216;BME280;65010;50.190;18.930;2022-11-23T02:47:41;96934.22;;;0.17;70.22
76216;BME280;65010;50.190;18.930;2022-11-23T02:50:47;96943.63;;;0.18;70.30
76216;BME280;65010;50.190;18.930;2022-11-23T02:53:54;96946.47;;;0.15;70.33
76216;BME280;65010;50.190;18.930;2022-11-23T02:57:00;96942.41;;;0.13;70.45
76216;BME280;65010;50.190;18.930;2022-11-23T03:00:12;96924.00;;;-0.02;70.63
76216;BME280;65010;50.190;18.930;2022-11-23T03:03:19;96930.22;;;0.05;70.59
76216;BME280;65010;50.190;18.930;2022-11-23T03:06:26;96929.97;;;-0.02;70.53
76216;BME280;65010;50.190;18.930;2022-11-23T03:09:32;96921.16;;;-0.09;71.02
76216;BME280;65010;50.190;18.930;2022-11-23T03:12:39;96923.50;;;-0.16;70.90
76216;BME280;65010;50.190;18.930;2022-11-23T03:15:53;96927.63;;;-0.23;71.20
76216;BME280;65010;50.190;18.930;2022-11-23T03:19:02;96928.16;;;-0.29;71.54
76216;BME280;65010;50.190;18.930;2022-11-23T03:22:08;96926.25;;;-0.27;71.59
76216;BME280;65010;50.190;18.930;2022-11-23T03:25:15;96930.59;;;-0.27;71.42
76216;BME280;65010;50.190;18.930;2022-11-23T03:28:25;96928.00;;;-0.27;71.50
76216;BME280;65010;50.190;18.930;2022-11-23T03:31:35;96925.72;;;-0.31;71.58
76216;BME280;65010;50.190;18.930;2022-11-23T03:34:45;96928.72;;;-0.35;71.53
76216;BME280;65010;50.190;18.930;2022-11-23T03:37:54;96924.50;;;-0.36;71.87
76216;BME280;65010;50.190;18.930;2022-11-23T03:41:00;96918.38;;;-0.35;71.59
76216;BME280;65010;50.190;18.930;2022-11-23T03:44:21;96923.28;;;-0.32;71.71
76216;BME280;65010;50.190;18.930;2022-11-23T03:47:30;96917.81;;;-0.29;71.56
76216;BME280;65010;50.190;18.930;2022-11-23T03:50:37;96923.28;;;-0.32;71.84
76216;BME280;65010;50.190;18.930;2022-11-23T03:53:44;96924.09;;;-0.32;71.86
76216;BME280;65010;50.190;18.930;2022-11-23T03:56:50;96925.97;;;-0.24;71.77
76216;BME280;65010;50.190;18.930;2022-11-23T03:59:57;96922.16;;;-0.20;71.49
76216;BME280;65010;50.190;18.930;2022-11-23T04:03:06;96919.31;;;-0.17;71.28
76216;BME280;65010;50.190;18.930;2022-11-23T04:06:40;96928.22;;;-0.11;71.38
76216;BME280;65010;50.190;18.930;2022-11-23T04:09:53;96932.44;;;-0.10;71.45
76216;BME280;65010;50.190;18.930;2022-11-23T04:13:17;96933.78;;;-0.06;71.12
76216;BME280;65010;50.190;18.930;2022-11-23T04:16:25;96932.69;;;-0.03;71.21
76216;BME280;65010;50.190;18.930;2022-11-23T04:19:33;96931.47;;;-0.09;71.01
76216;BME280;65010;50.190;18.930;2022-11-23T04:22:41;96932.72;;;-0.13;71.69
76216;BME280;65010;50.190;18.930;2022-11-23T04:25:47;96928.75;;;-0.07;71.50
76216;BME280;65010;50.190;18.930;2022-11-23T04:28:55;96930.91;;;-0.03;71.13
76216;BME280;65010;50.190;18.930;2022-11-23T04:32:01;96931.19;;;0.04;70.91
76216;BME280;65010;50.190;18.930;2022-11-23T04:35:11;96930.59;;;0.10;70.74
76216;BME280;65010;50.190;18.930;2022-11-23T04:38:20;96933.06;;;0.12;70.77
76216;BME280;65010;50.190;18.930;2022-11-23T04:41:27;96930.16;;;0.15;70.55
76216;BME280;65010;50.190;18.930;2022-11-23T04:44:34;96924.72;;;0.18;70.53
76216;BME280;65010;50.190;18.930;2022-11-23T04:47:42;96924.56;;;0.19;70.50
76216;BME280;65010;50.190;18.930;2022-11-23T04:50:52;96926.75;;;0.24;70.15
76216;BME280;65010;50.190;18.930;2022-11-23T04:54:06;96929.03;;;0.27;70.08
76216;BME280;65010;50.190;18.930;2022-11-23T04:57:21;96924.81;;;0.26;70.04
76216;BME280;65010;50.190;18.930;2022-11-23T05:00:28;96929.56;;;0.30;69.95
76216;BME280;65010;50.190;18.930;2022-11-23T05:03:36;96917.59;;;0.29;70.16
76216;BME280;65010;50.190;18.930;2022-11-23T05:06:46;96927.78;;;0.31;70.00
76216;BME280;65010;50.190;18.930;2022-11-23T05:09:53;96932.13;;;0.30;69.91
76216;BME280;65010;50.190;18.930;2022-11-23T05:13:01;96930.38;;;0.31;69.98
76216;BME280;65010;50.190;18.930;2022-11-23T05:16:07;96922.78;;;0.29;70.15
76216;BME280;65010;50.190;18.930;2022-11-23T05:19:15;96926.03;;;0.32;70.07
76216;BME280;65010;50.190;18.930;2022-11-23T05:22:23;96919.75;;;0.34;69.99
76216;BME280;65010;50.190;18.930;2022-11-23T05:25:30;96919.75;;;0.34;70.03
76216;BME280;65010;50.190;18.930;2022-11-23T05:28:39;96925.59;;;0.36;70.00
76216;BME280;65010;50.190;18.930;2022-11-23T05:31:49;96927.19;;;0.37;70.36
76216;BME280;65010;50.190;18.930;2022-11-23T05:34:55;96929.38;;;0.42;70.05
76216;BME280;65010;50.190;18.930;2022-11-23T05:38:07;96926.25;;;0.38;69.92
76216;BME280;65010;50.190;18.930;2022-11-23T05:41:13;96916.44;;;0.42;69.95
76216;BME280;65010;50.190;18.930;2022-11-23T05:44:21;96920.63;;;0.43;69.91
76216;BME280;65010;50.190;18.930;2022-11-23T05:47:28;96919.69;;;0.44;70.06
76216;BME280;65010;50.190;18.930;2022-11-23T05:50:35;96910.97;;;0.45;69.86
76216;BME280;65010;50.190;18.930;2022-11-23T05:54:05;96921.84;;;0.48;70.23
76216;BME280;65010;50.190;18.930;2022-11-23T05:57:20;96913.38;;;0.56;69.94
76216;BME280;65010;50.190;18.930;2022-11-23T06:00:27;96918.22;;;0.59;69.62
76216;BME280;65010;50.190;18.930;2022-11-23T06:03:39;96924.72;;;0.63;69.49
76216;BME280;65010;50.190;18.930;2022-11-23T06:06:45;96928.38;;;0.70;69.30
76216;BME280;65010;50.190;18.930;2022-11-23T06:09:54;96940.19;;;0.73;69.27
76216;BME280;65010;50.190;18.930;2022-11-23T06:13:02;96948.91;;;0.72;69.14
76216;BME280;65010;50.190;18.930;2022-11-23T06:16:10;96959.41;;;0.70;69.44
76216;BME280;65010;50.190;18.930;2022-11-23T06:19:26;96961.75;;;0.64;69.38
76216;BME280;65010;50.190;18.930;2022-11-23T06:22:34;96964.63;;;0.61;69.77
76216;BME280;65010;50.190;18.930;2022-11-23T06:25:45;96970.31;;;0.64;69.43
76216;BME280;65010;50.190;18.930;2022-11-23T06:28:58;96961.97;;;0.70;69.53
76216;BME280;65010;50.190;18.930;2022-11-23T06:32:04;96971.00;;;0.66;69.24
76216;BME280;65010;50.190;18.930;2022-11-23T06:35:11;96967.59;;;0.66;69.32
76216;BME280;65010;50.190;18.930;2022-11-23T06:38:19;96969.22;;;0.67;69.41
76216;BME280;65010;50.190;18.930;2022-11-23T06:41:36;96970.84;;;0.68;69.15
76216;BME280;65010;50.190;18.930;2022-11-23T06:44:42;96967.88;;;0.63;69.43
76216;BME280;65010;50.190;18.930;2022-11-23T06:47:53;96963.50;;;0.63;69.58
76216;BME280;65010;50.190;18.930;2022-11-23T06:51:00;96962.75;;;0.53;69.70
76216;BME280;65010;50.190;18.930;2022-11-23T06:54:08;96954.97;;;0.35;70.17
76216;BME280;65010;50.190;18.930;2022-11-23T06:57:18;96960.69;;;0.29;70.74
76216;BME280;65010;50.190;18.930;2022-11-23T07:00:25;96962.25;;;0.22;70.76
76216;BME280;65010;50.190;18.930;2022-11-23T07:03:31;96961.28;;;0.23;70.96
76216;BME280;65010;50.190;18.930;2022-11-23T07:06:47;96922.91;;;0.00;71.28
76216;BME280;65010;50.190;18.930;2022-11-23T07:10:12;96953.91;;;0.28;71.25
76216;BME280;65010;50.190;18.930;2022-11-23T07:13:24;96962.63;;;0.27;71.18
76216;BME280;65010;50.190;18.930;2022-11-23T07:16:29;96966.28;;;0.34;71.25
76216;BME280;65010;50.190;18.930;2022-11-23T07:19:50;96970.47;;;0.35;71.08
76216;BME280;65010;50.190;18.930;2022-11-23T07:23:11;96964.63;;;0.33;70.88
76216;BME280;65010;50.190;18.930;2022-11-23T07:26:32;96981.34;;;0.39;71.29
76216;BME280;65010;50.190;18.930;2022-11-23T07:29:56;96978.84;;;0.47;71.00
76216;BME280;65010;50.190;18.930;2022-11-23T07:33:17;96983.97;;;0.57;70.47
76216;BME280;65010;50.190;18.930;2022-11-23T07:36:39;96985.09;;;0.54;70.49
76216;BME280;65010;50.190;18.930;2022-11-23T07:40:00;96981.53;;;0.55;70.50
76216;BME280;65010;50.190;18.930;2022-11-23T07:43:23;96976.75;;;0.60;70.92
76216;BME280;65010;50.190;18.930;2022-11-23T07:46:47;96983.25;;;0.64;70.56
76216;BME280;65010;50.190;18.930;2022-11-23T07:50:10;96982.44;;;0.64;70.48
76216;BME280;65010;50.190;18.930;2022-11-23T07:53:18;96986.50;;;0.66;70.60
76216;BME280;65010;50.190;18.930;2022-11-23T07:56:25;96997.06;;;0.73;70.39
76216;BME280;65010;50.190;18.930;2022-11-23T07:59:32;97003.59;;;0.77;70.16
76216;BME280;65010;50.190;18.930;2022-11-23T08:02:41;96998.00;;;0.82;70.30
76216;BME280;65010;50.190;18.930;2022-11-23T08:06:08;96995.41;;;0.82;70.01
76216;BME280;65010;50.190;18.930;2022-11-23T08:09:14;96986.28;;;0.78;70.00
76216;BME280;65010;50.190;18.930;2022-11-23T08:12:21;96967.06;;;0.62;70.12
76216;BME280;65010;50.190;18.930;2022-11-23T08:15:27;96993.50;;;0.84;70.32
76216;BME280;65010;50.190;18.930;2022-11-23T08:18:36;96989.56;;;0.98;70.32
76216;BME280;65010;50.190;18.930;2022-11-23T08:21:42;96993.59;;;1.10;69.42
76216;BME280;65010;50.190;18.930;2022-11-23T08:24:49;96986.50;;;1.12;69.62
76216;BME280;65010;50.190;18.930;2022-11-23T08:27:56;96990.78;;;1.21;69.25
76216;BME280;65010;50.190;18.930;2022-11-23T08:31:05;96991.44;;;1.23;68.91
76216;BME280;65010;50.190;18.930;2022-11-23T08:34:15;96986.41;;;1.22;68.99
76216;BME280;65010;50.190;18.930;2022-11-23T08:37:22;96979.16;;;1.25;69.17
76216;BME280;65010;50.190;18.930;2022-11-23T08:40:28;96981.53;;;1.37;69.14
76216;BME280;65010;50.190;18.930;2022-11-23T08:43:35;96974.28;;;1.40;68.10
76216;BME280;65010;50.190;18.930;2022-11-23T08:46:41;96960.81;;;1.37;68.71
76216;BME280;65010;50.190;18.930;2022-11-23T08:49:51;96953.28;;;1.25;68.46
76216;BME280;65010;50.190;18.930;2022-11-23T08:52:58;96975.69;;;1.35;68.70
76216;BME280;65010;50.190;18.930;2022-11-23T08:56:06;96976.88;;;1.40;68.75
76216;BME280;65010;50.190;18.930;2022-11-23T08:59:12;96981.34;;;1.56;68.80
76216;BME280;65010;50.190;18.930;2022-11-23T09:02:19;96978.66;;;1.66;68.02
76216;BME280;65010;50.190;18.930;2022-11-23T09:05:29;96976.91;;;1.66;67.77
76216;BME280;65010;50.190;18.930;2022-11-23T09:08:36;96969.94;;;1.67;67.31
76216;BME280;65010;50.190;18.930;2022-11-23T09:11:42;96969.94;;;1.67;67.93
76216;BME280;65010;50.190;18.930;2022-11-23T09:14:49;96970.09;;;1.65;67.71
76216;BME280;65010;50.190;18.930;2022-11-23T09:17:55;96976.66;;;1.60;67.60
76216;BME280;65010;50.190;18.930;2022-11-23T09:21:05;96978.69;;;1.48;67.80
76216;BME280;65010;50.190;18.930;2022-11-23T09:24:12;96977.34;;;1.44;68.04
76216;BME280;65010;50.190;18.930;2022-11-23T09:27:19;96980.63;;;1.46;68.33
76216;BME280;65010;50.190;18.930;2022-11-23T09:30:26;96981.28;;;1.48;68.30
76216;BME280;65010;50.190;18.930;2022-11-23T09:33:33;96986.91;;;1.43;67.97
76216;BME280;65010;50.190;18.930;2022-11-23T09:36:41;96984.63;;;1.40;68.09
76216;BME280;65010;50.190;18.930;2022-11-23T09:39:48;96981.44;;;1.46;68.62
76216;BME280;65010;50.190;18.930;2022-11-23T09:43:07;96969.50;;;1.54;67.69
76216;BME280;65010;50.190;18.930;2022-11-23T09:46:40;96955.63;;;1.55;67.69
76216;BME280;65010;50.190;18.930;2022-11-23T09:50:10;96961.00;;;1.61;67.66
76216;BME280;65010;50.190;18.930;2022-11-23T09:53:30;96954.25;;;1.68;67.55
76216;BME280;65010;50.190;18.930;2022-11-23T09:56:40;96953.78;;;1.73;67.13
76216;BME280;65010;50.190;18.930;2022-11-23T09:59:56;96945.69;;;1.76;67.68
76216;BME280;65010;50.190;18.930;2022-11-23T10:03:13;96919.75;;;1.68;66.51
76216;BME280;65010;50.190;18.930;2022-11-23T10:06:24;96933.59;;;1.77;66.53
76216;BME280;65010;50.190;18.930;2022-11-23T10:09:43;96922.09;;;1.79;66.69
76216;BME280;65010;50.190;18.930;2022-11-23T10:13:14;96933.78;;;1.83;66.70
76216;BME280;65010;50.190;18.930;2022-11-23T10:16:40;96926.16;;;1.82;66.67
76216;BME280;65010;50.190;18.930;2022-11-23T10:20:11;96924.59;;;1.89;66.27
76216;BME280;65010;50.190;18.930;2022-11-23T10:23:39;96921.22;;;1.97;66.50
76216;BME280;65010;50.190;18.930;2022-11-23T10:27:01;96918.38;;;2.16;65.90
76216;BME280;65010;50.190;18.930;2022-11-23T10:30:17;96918.75;;;2.29;65.00
76216;BME280;65010;50.190;18.930;2022-11-23T10:33:31;96911.63;;;2.23;64.55
76216;BME280;65010;50.190;18.930;2022-11-23T10:36:44;96915.00;;;2.24;64.84
76216;BME280;65010;50.190;18.930;2022-11-23T10:39:51;96910.47;;;2.26;64.86
76216;BME280;65010;50.190;18.930;2022-11-23T10:43:00;96908.41;;;2.29;64.69
76216;BME280;65010;50.190;18.930;2022-11-23T10:46:30;96897.25;;;2.37;64.56
76216;BME280;65010;50.190;18.930;2022-11-23T10:49:56;96891.75;;;2.48;64.06
76216;BME280;65010;50.190;18.930;2022-11-23T10:53:19;96896.16;;;2.56;63.50
76216;BME280;65010;50.190;18.930;2022-11-23T10:56:31;96892.47;;;2.67;63.60
76216;BME280;65010;50.190;18.930;2022-11-23T10:59:42;96896.19;;;2.81;63.04
76216;BME280;65010;50.190;18.930;2022-11-23T11:02:49;96896.03;;;2.90;62.82
76216;BME280;65010;50.190;18.930;2022-11-23T11:05:58;96895.72;;;2.94;62.33
76216;BME280;65010;50.190;18.930;2022-11-23T11:09:19;96896.03;;;2.99;62.46
76216;BME280;65010;50.190;18.930;2022-11-23T11:12:29;96889.41;;;2.96;62.12
76216;BME280;65010;50.190;18.930;2022-11-23T11:15:50;96887.94;;;2.77;62.01
76216;BME280;65010;50.190;18.930;2022-11-23T11:18:59;96897.16;;;2.72;62.63
76216;BME280;65010;50.190;18.930;2022-11-23T11:22:31;96880.28;;;2.67;62.38
76216;BME280;65010;50.190;18.930;2022-11-23T11:25:47;96898.63;;;2.74;62.72
76216;BME280;65010;50.190;18.930;2022-11-23T11:29:06;96891.16;;;2.71;62.96
76216;BME280;65010;50.190;18.930;2022-11-23T11:32:53;96879.66;;;2.74;63.03
76216;BME280;65010;50.190;18.930;2022-11-23T11:36:08;96882.91;;;2.84;62.89
76216;BME280;65010;50.190;18.930;2022-11-23T11:39:27;96889.06;;;2.83;63.10
76216;BME280;65010;50.190;18.930;2022-11-23T11:42:42;96889.25;;;2.89;62.54
76216;BME280;65010;50.190;18.930;2022-11-23T11:45:55;96880.47;;;2.99;62.50
76216;BME280;65010;50.190;18.930;2022-11-23T11:49:31;96881.31;;;2.99;61.77
76216;BME280;65010;50.190;18.930;2022-11-23T11:52:44;96890.84;;;2.82;62.09
76216;BME280;65010;50.190;18.930;2022-11-23T11:56:00;96891.97;;;2.72;62.39
76216;BME280;65010;50.190;18.930;2022-11-23T11:59:16;96890.81;;;2.58;62.50
76216;BME280;65010;50.190;18.930;2022-11-23T12:02:34;96892.25;;;2.52;62.70
76216;BME280;65010;50.190;18.930;2022-11-23T12:05:53;96898.06;;;2.46;63.05
76216;BME280;65010;50.190;18.930;2022-11-23T12:09:12;96895.63;;;2.44;63.50
76216;BME280;65010;50.190;18.930;2022-11-23T12:12:23;96899.34;;;2.42;63.13
76216;BME280;65010;50.190;18.930;2022-11-23T12:15:38;96887.03;;;2.36;63.02
76216;BME280;65010;50.190;18.930;2022-11-23T12:19:08;96907.50;;;2.55;63.03
76216;BME280;65010;50.190;18.930;2022-11-23T12:22:38;96900.81;;;2.44;62.84
76216;BME280;65010;50.190;18.930;2022-11-23T12:26:18;96901.94;;;2.42;62.89
76216;BME280;65010;50.190;18.930;2022-11-23T12:29:45;96907.78;;;2.44;62.91
76216;BME280;65010;50.190;18.930;2022-11-23T12:33:34;96924.63;;;2.40;63.25
76216;BME280;65010;50.190;18.930;2022-11-23T12:37:05;96915.53;;;2.36;63.65
76216;BME280;65010;50.190;18.930;2022-11-23T12:46:02;96920.09;;;2.42;63.67
76216;BME280;65010;50.190;18.930;2022-11-23T12:49:30;96930.47;;;2.42;63.55
76216;BME280;65010;50.190;18.930;2022-11-23T12:52:59;96930.00;;;2.46;63.71
76216;BME280;65010;50.190;18.930;2022-11-23T12:56:23;96927.72;;;2.43;63.61
76216;BME280;65010;50.190;18.930;2022-11-23T12:59:53;96918.00;;;2.37;63.70
76216;BME280;65010;50.190;18.930;2022-11-23T13:07:39;96938.72;;;2.37;64.05
76216;BME280;65010;50.190;18.930;2022-11-23T13:11:19;96934.97;;;2.32;64.08
76216;BME280;65010;50.190;18.930;2022-11-23T13:14:50;96933.69;;;2.36;63.65
76216;BME280;65010;50.190;18.930;2022-11-23T13:18:17;96936.59;;;2.33;63.56
76216;BME280;65010;50.190;18.930;2022-11-23T13:21:36;96933.97;;;2.24;64.09
76216;BME280;65010;50.190;18.930;2022-11-23T13:25:00;96929.41;;;2.18;63.84
76216;BME280;65010;50.190;18.930;2022-11-23T13:28:29;96931.84;;;2.20;64.37
76216;BME280;65010;50.190;18.930;2022-11-23T13:31:36;96930.28;;;2.27;64.50
76216;BME280;65010;50.190;18.930;2022-11-23T13:34:45;96937.56;;;2.32;64.22
76216;BME280;65010;50.190;18.930;2022-11-23T13:38:17;96944.22;;;2.34;64.25
76216;BME280;65010;50.190;18.930;2022-11-23T13:41:58;96936.56;;;2.24;64.28
76216;BME280;65010;50.190;18.930;2022-11-23T13:45:29;96946.94;;;2.24;64.45
76216;BME280;65010;50.190;18.930;2022-11-23T13:48:43;96946.78;;;2.26;64.82
76216;BME280;65010;50.190;18.930;2022-11-23T13:52:05;96947.75;;;2.25;64.61
76216;BME280;65010;50.190;18.930;2022-11-23T13:55:33;96939.97;;;2.25;64.70
76216;BME280;65010;50.190;18.930;2022-11-23T13:58:51;96942.41;;;2.26;64.42
76216;BME280;65010;50.190;18.930;2022-11-23T14:02:25;96947.91;;;2.23;64.59
76216;BME280;65010;50.190;18.930;2022-11-23T14:05:52;96943.69;;;2.22;64.55
76216;BME280;65010;50.190;18.930;2022-11-23T14:09:11;96938.31;;;2.16;64.63
76216;BME280;65010;50.190;18.930;2022-11-23T14:12:33;96959.53;;;2.11;64.63
76216;BME280;65010;50.190;18.930;2022-11-23T14:15:53;96955.44;;;2.08;64.95
76216;BME280;65010;50.190;18.930;2022-11-23T14:19:19;96963.03;;;2.02;65.24
76216;BME280;65010;50.190;18.930;2022-11-23T14:22:50;96964.81;;;2.01;64.99
76216;BME280;65010;50.190;18.930;2022-11-23T14:26:21;96974.19;;;2.02;65.01
76216;BME280;65010;50.190;18.930;2022-11-23T14:30:03;96967.25;;;2.03;65.16
76216;BME280;65010;50.190;18.930;2022-11-23T14:33:28;96961.22;;;2.02;64.79
76216;BME280;65010;50.190;18.930;2022-11-23T14:36:53;96968.19;;;2.02;64.67
76216;BME280;65010;50.190;18.930;2022-11-23T14:40:19;96968.31;;;1.92;65.02
76216;BME280;65010;50.190;18.930;2022-11-23T14:43:33;96967.97;;;1.87;65.37
76216;BME280;65010;50.190;18.930;2022-11-23T14:47:00;96966.69;;;1.91;65.08
76216;BME280;65010;50.190;18.930;2022-11-23T14:50:19;96971.72;;;1.93;64.81
76216;BME280;65010;50.190;18.930;2022-11-23T14:53:37;96979.28;;;1.86;65.39
76216;BME280;65010;50.190;18.930;2022-11-23T14:56:51;96986.91;;;1.87;65.15
76216;BME280;65010;50.190;18.930;2022-11-23T15:00:03;96990.09;;;1.81;65.16
76216;BME280;65010;50.190;18.930;2022-11-23T15:03:17;96989.59;;;1.78;65.64
76216;BME280;65010;50.190;18.930;2022-11-23T15:06:48;96981.47;;;1.73;65.82
76216;BME280;65010;50.190;18.930;2022-11-23T15:10:10;96991.47;;;1.67;65.70
76216;BME280;65010;50.190;18.930;2022-11-23T15:13:27;96998.22;;;1.60;66.03
76216;BME280;65010;50.190;18.930;2022-11-23T15:16:38;96996.06;;;1.56;66.16
76216;BME280;65010;50.190;18.930;2022-11-23T15:19:55;96997.84;;;1.55;66.26
76216;BME280;65010;50.190;18.930;2022-11-23T15:23:04;97001.75;;;1.59;66.07
76216;BME280;65010;50.190;18.930;2022-11-23T15:26:16;96984.97;;;1.63;66.17
76216;BME280;65010;50.190;18.930;2022-11-23T15:29:51;96989.84;;;1.66;65.77
76216;BME280;65010;50.190;18.930;2022-11-23T15:33:01;96985.47;;;1.67;65.92
76216;BME280;65010;50.190;18.930;2022-11-23T15:36:15;96978.84;;;1.64;65.82
76216;BME280;65010;50.190;18.930;2022-11-23T15:39:27;96994.50;;;1.63;66.04
76216;BME280;65010;50.190;18.930;2022-11-23T15:42:36;96994.13;;;1.58;65.83
76216;BME280;65010;50.190;18.930;2022-11-23T15:46:01;97002.50;;;1.52;66.24
76216;BME280;65010;50.190;18.930;2022-11-23T15:49:13;97007.47;;;1.45;66.24
76216;BME280;65010;50.190;18.930;2022-11-23T15:52:23;97009.94;;;1.46;66.49
76216;BME280;65010;50.190;18.930;2022-11-23T15:55:29;97012.53;;;1.46;66.74
76216;BME280;65010;50.190;18.930;2022-11-23T15:58:47;97000.06;;;1.50;66.61
76216;BME280;65010;50.190;18.930;2022-11-23T16:01:56;97000.22;;;1.48;66.24
76216;BME280;65010;50.190;18.930;2022-11-23T16:05:12;97001.03;;;1.49;66.42
76216;BME280;65010;50.190;18.930;2022-11-23T16:08:24;97006.50;;;1.46;66.27
76216;BME280;65010;50.190;18.930;2022-11-23T16:11:33;97007.09;;;1.40;66.33
76216;BME280;65010;50.190;18.930;2022-11-23T16:14:43;97017.91;;;1.35;66.36
76216;BME280;65010;50.190;18.930;2022-11-23T16:17:50;97019.44;;;1.28;66.41
76216;BME280;65010;50.190;18.930;2022-11-23T16:20:59;97010.81;;;1.19;67.01
76216;BME280;65010;50.190;18.930;2022-11-23T16:24:18;97007.63;;;1.07;67.56
76216;BME280;65010;50.190;18.930;2022-11-23T16:27:27;97006.53;;;1.10;67.88
76216;BME280;65010;50.190;18.930;2022-11-23T16:30:38;97020.13;;;1.12;67.95
76216;BME280;65010;50.190;18.930;2022-11-23T16:33:45;97016.88;;;1.10;67.78
76216;BME280;65010;50.190;18.930;2022-11-23T16:36:53;97020.47;;;0.99;68.21
76216;BME280;65010;50.190;18.930;2022-11-23T16:40:00;97020.78;;;0.96;68.64
76216;BME280;65010;50.190;18.930;2022-11-23T16:43:09;97021.72;;;0.95;68.61
76216;BME280;65010;50.190;18.930;2022-11-23T16:46:18;97028.38;;;0.98;68.66
76216;BME280;65010;50.190;18.930;2022-11-23T16:49:25;97014.94;;;0.94;68.70
76216;BME280;65010;50.190;18.930;2022-11-23T16:52:31;97018.03;;;0.98;68.82
76216;BME280;65010;50.190;18.930;2022-11-23T16:55:43;97022.91;;;1.01;68.45
76216;BME280;65010;50.190;18.930;2022-11-23T16:58:50;97022.34;;;1.07;68.34
76216;BME280;65010;50.190;18.930;2022-11-23T17:02:02;97025.44;;;1.10;68.43
76216;BME280;65010;50.190;18.930;2022-11-23T17:05:13;97011.47;;;1.03;68.26
76216;BME280;65010;50.190;18.930;2022-11-23T17:08:20;97027.91;;;1.12;67.76
76216;BME280;65010;50.190;18.930;2022-11-23T17:11:27;97020.34;;;1.01;68.09
76216;BME280;65010;50.190;18.930;2022-11-23T17:14:37;97020.78;;;0.96;68.21